Miguel Oliver — ECLX — position and weather

sailwx.info

Track history (hours):
 
Tides and Currents Weather Stations Pressure Air Temp Water Temp Dewpoint Dewpoint Depression Visibility Wind Speed Wind Dir Waves Ship Positions

Oceanographic research ship Miguel Oliver (Spain)

Ship's website: http://www.mapa.es/es/pesca/pags/miguel_web/index.htm

Last reported at 2014-Nov-27 11:18 UTC. Time now 2014-Nov-29 07:25 UTC.
Position N 43°49' W 002°13'.

Length 70 m; draft 4.8 m.

Type: Other ship. MMSI: 225322000.

Date/timePositionNaut miles runAvg speedWind from/ knotsBaromVisibWave heightAir tempDewpointWater temp
2014-Nov-27 11:18N 43°49' W 002°13'4 1.9
2014-Nov-27 09:09N 43°50' W 002°08'  
2014-Nov-24 20:32N 43°46' W 002°48'7 0.2
2014-Nov-22 21:33N 43°42' W 002°57'7 0.3
2014-Nov-21 16:30N 43°46' W 002°48'5 5.3
2014-Nov-21 15:30N 43°46' W 002°41'5 1.1
2014-Nov-21 10:33N 43°46' W 002°48'6 5.6
2014-Nov-21 09:33N 43°46' W 002°56'6 5.6
2014-Nov-21 08:33N 43°46' W 003°04'3 2.8
2014-Nov-21 07:33N 43°47' W 003°07'6 5.5
2014-Nov-21 06:33N 43°46' W 002°60'6 5.5
2014-Nov-21 05:23N 43°46' W 002°51'6 6.0
2014-Nov-21 04:25N 43°46' W 002°43'1 0.3
2014-Nov-20 23:32N 43°47' W 002°45'5 5.4
2014-Nov-20 22:33N 43°47' W 002°52'6 5.7
2014-Nov-20 21:33N 43°47' W 002°60'5 5.3
2014-Nov-20 20:33N 43°47' W 003°07'2 1.6
2014-Nov-20 19:26N 43°48' W 003°05'6 6.9
2014-Nov-20 18:31N 43°48' W 002°57'17 2.0
2014-Nov-20 10:04N 43°50' W 002°33'16 2.8
2014-Nov-20 04:16N 43°51' W 002°55'11 6.4
2014-Nov-20 02:33N 43°51' W 002°40'7 6.6
2014-Nov-20 01:32N 43°51' W 002°31'3 2.8
2014-Nov-20 00:22N 43°52' W 002°35'  
Track history (hours):
 
Tides and Currents Weather Stations Pressure Air Temp Water Temp Dewpoint Dewpoint Depression Visibility Wind Speed Wind Dir Waves Ship Positions

Oceanographic research ship Miguel Oliver (Spain)

Ship's website: http://www.mapa.es/es/pesca/pags/miguel_web/index.htm

Last reported at 2014-Nov-27 11:18 UTC. Time now 2014-Nov-29 07:25 UTC.
Position N 43°49' W 002°13'.

Length 70 m; draft 4.8 m.

Type: Other ship. MMSI: 225322000.

Date/timePositionNaut miles runAvg speedWind from/ knotsBaromVisibWave heightAir tempDewpointWater temp
2014-Nov-27 11:18N 43°49' W 002°13'4 1.9
2014-Nov-27 09:09N 43°50' W 002°08'  
2014-Nov-24 20:32N 43°46' W 002°48'7 0.2
2014-Nov-22 21:33N 43°42' W 002°57'7 0.3
2014-Nov-21 16:30N 43°46' W 002°48'5 5.3
2014-Nov-21 15:30N 43°46' W 002°41'5 1.1
2014-Nov-21 10:33N 43°46' W 002°48'6 5.6
2014-Nov-21 09:33N 43°46' W 002°56'6 5.6
2014-Nov-21 08:33N 43°46' W 003°04'3 2.8
2014-Nov-21 07:33N 43°47' W 003°07'6 5.5
2014-Nov-21 06:33N 43°46' W 002°60'6 5.5
2014-Nov-21 05:23N 43°46' W 002°51'6 6.0
2014-Nov-21 04:25N 43°46' W 002°43'1 0.3
2014-Nov-20 23:32N 43°47' W 002°45'5 5.4
2014-Nov-20 22:33N 43°47' W 002°52'6 5.7
2014-Nov-20 21:33N 43°47' W 002°60'5 5.3
2014-Nov-20 20:33N 43°47' W 003°07'2 1.6
2014-Nov-20 19:26N 43°48' W 003°05'6 6.9
2014-Nov-20 18:31N 43°48' W 002°57'17 2.0
2014-Nov-20 10:04N 43°50' W 002°33'16 2.8
2014-Nov-20 04:16N 43°51' W 002°55'11 6.4
2014-Nov-20 02:33N 43°51' W 002°40'7 6.6
2014-Nov-20 01:32N 43°51' W 002°31'3 2.8
2014-Nov-20 00:22N 43°52' W 002°35'  

Dump ship's entire track history